Time;durP1;ratioP1;P1;durP2;ratioP2;P2;SDS_P1;SDS_P2;PMS_P1;PMS_P2;Temp;Humidity;BMP_temperature;BMP_pressure;BME280_temperature;BME280_humidity;BME280_pressure;Samples;Min_cycle;Max_cycle;Signal;HPM_P1;HPM_P2
2021/05/12 00:01:10;;;;;;;8.20;3.35;;;;;;;10.53;83.78;98884.88;5016034;28;20038;-64
2021/05/12 00:03:36;;;;;;;8.45;2.80;;;;;;;10.56;83.56;98881.69;5016702;28;20033;-64
2021/05/12 00:06:01;;;;;;;8.15;3.20;;;;;;;10.55;83.30;98880.06;5031042;28;20574;-64
2021/05/12 00:08:27;;;;;;;9.63;3.13;;;;;;;10.54;83.40;98878.47;5016217;28;20041;-64
2021/05/12 00:10:52;;;;;;;6.90;2.85;;;;;;;10.51;83.60;98878.97;5016042;28;20392;-65
2021/05/12 00:13:17;;;;;;;9.00;2.92;;;;;;;10.50;83.75;98885.38;5016840;28;20385;-66
2021/05/12 00:15:43;;;;;;;5.28;2.95;;;;;;;10.48;83.59;98892.88;5015802;28;20046;-66
2021/05/12 00:18:16;;;;;;;6.07;2.97;;;;;;;10.42;82.86;98877.78;5016670;28;20179;-65
2021/05/12 00:20:42;;;;;;;10.27;2.92;;;;;;;10.42;82.81;98875.09;5016026;28;20080;-64
2021/05/12 00:23:11;;;;;;;8.23;3.38;;;;;;;10.37;82.93;98872.34;5016188;28;20026;-64
2021/05/12 00:25:36;;;;;;;6.15;3.00;;;;;;;10.44;82.51;98875.66;5015894;28;20034;-64
2021/05/12 00:28:02;;;;;;;9.35;2.85;;;;;;;10.39;82.50;98880.97;5015975;28;20184;-64
2021/05/12 00:30:27;;;;;;;6.35;2.85;;;;;;;10.42;82.32;98875.09;5015855;28;20034;-64
2021/05/12 00:32:53;;;;;;;6.00;2.97;;;;;;;10.45;81.98;98879.94;5016251;28;20469;-64
2021/05/12 00:35:18;;;;;;;8.13;2.97;;;;;;;10.37;82.91;98877.72;5015744;28;20107;-64
2021/05/12 00:37:44;;;;;;;5.55;3.00;;;;;;;10.40;82.25;98877.22;5015891;28;20029;-64
2021/05/12 00:40:10;;;;;;;5.68;3.17;;;;;;;10.44;81.89;98877.53;5015507;28;20026;-64
2021/05/12 00:42:36;;;;;;;6.85;3.08;;;;;;;10.46;81.82;98878.91;5015792;28;20041;-64
2021/05/12 00:45:03;;;;;;;9.82;3.20;;;;;;;10.41;82.11;98872.66;5015260;28;20361;-64
2021/05/12 00:47:30;;;;;;;6.53;3.22;;;;;;;10.42;82.48;98872.41;5015497;28;20022;-64
2021/05/12 00:49:55;;;;;;;9.00;2.95;;;;;;;10.41;81.64;98857.41;4997319;28;20108;-64
2021/05/12 00:52:21;;;;;;;6.65;3.38;;;;;;;10.36;81.96;98863.50;5015185;28;20330;-64
2021/05/12 00:54:46;;;;;;;5.03;3.20;;;;;;;10.36;81.72;98862.72;4998099;28;20377;-64
2021/05/12 00:57:12;;;;;;;6.03;3.88;;;;;;;10.25;82.53;98868.97;5015052;28;20034;-64
2021/05/12 00:59:37;;;;;;;9.63;3.63;;;;;;;10.25;82.81;98885.03;5015484;28;20030;-64
2021/05/12 01:02:05;;;;;;;5.75;3.63;;;;;;;10.17;82.86;98874.75;5014917;28;20034;-64
2021/05/12 01:04:30;;;;;;;9.55;3.60;;;;;;;10.15;82.76;98873.13;5015631;28;20034;-64
2021/05/12 01:06:56;;;;;;;5.65;3.90;;;;;;;10.01;83.11;98882.59;5014986;28;20108;-64
2021/05/12 01:09:21;;;;;;;10.60;4.10;;;;;;;10.01;83.25;98879.06;5015169;28;20053;-64
2021/05/12 01:11:47;;;;;;;9.77;4.22;;;;;;;9.98;83.33;98882.25;5014356;28;20493;-64
2021/05/12 01:14:12;;;;;;;9.40;4.07;;;;;;;9.93;83.11;98883.00;5015094;28;20404;-64
2021/05/12 01:16:40;;;;;;;9.57;4.60;;;;;;;9.92;83.18;98881.38;4997260;28;20041;-64
2021/05/12 01:19:05;;;;;;;5.72;4.30;;;;;;;10.03;82.34;98883.13;5015014;28;20025;-64
2021/05/12 01:21:31;;;;;;;7.95;4.47;;;;;;;9.97;82.68;98883.31;5014706;28;20046;-64
2021/05/12 01:23:56;;;;;;;10.57;5.30;;;;;;;10.00;82.67;98882.81;4997479;28;20487;-64
2021/05/12 01:26:22;;;;;;;8.30;4.10;;;;;;;9.95;83.21;98880.88;5014567;28;20034;-64
2021/05/12 01:28:49;;;;;;;8.68;4.40;;;;;;;9.94;83.20;98890.78;5015017;28;20038;-64
2021/05/12 01:31:18;;;;;;;11.25;4.78;;;;;;;9.92;83.19;98887.53;5014507;28;20104;-64
2021/05/12 01:33:43;;;;;;;10.82;5.03;;;;;;;9.90;83.17;98895.00;5014782;28;20028;-64
2021/05/12 01:36:09;;;;;;;11.32;5.03;;;;;;;9.84;83.72;98887.97;5014355;28;20029;-64
2021/05/12 01:38:35;;;;;;;8.73;4.97;;;;;;;9.87;83.37;98900.06;4997153;28;20036;-63
2021/05/12 01:41:01;;;;;;;10.38;5.60;;;;;;;9.83;84.11;98896.22;5014283;28;20037;-64
2021/05/12 01:43:28;;;;;;;10.57;6.07;;;;;;;9.83;83.83;98894.38;5014754;28;20029;-66
2021/05/12 01:45:54;;;;;;;7.95;5.28;;;;;;;9.79;84.87;98897.81;5014368;28;20038;-64
2021/05/12 01:48:19;;;;;;;12.13;6.00;;;;;;;9.81;84.19;98896.50;5013445;28;20111;-64
2021/05/12 01:50:45;;;;;;;8.95;5.22;;;;;;;9.78;84.32;98890.81;4996579;28;20456;-64
2021/05/12 01:53:11;;;;;;;10.68;5.88;;;;;;;9.84;84.19;98901.34;5013282;28;20435;-64
2021/05/12 01:55:37;;;;;;;9.75;5.82;;;;;;;9.89;84.04;98898.75;5014005;28;20030;-64
2021/05/12 01:58:02;;;;;;;12.45;5.78;;;;;;;9.86;84.39;98896.56;5014289;28;20026;-64
2021/05/12 02:00:30;;;;;;;9.85;6.13;;;;;;;9.83;84.23;98893.56;4995994;28;20040;-64
2021/05/12 02:02:55;;;;;;;12.73;6.35;;;;;;;9.85;84.29;98886.91;5014332;28;20105;-64
2021/05/12 02:05:22;;;;;;;13.20;6.20;;;;;;;9.89;83.67;98893.41;5013857;28;20033;-64
2021/05/12 02:07:48;;;;;;;10.65;5.85;;;;;;;9.96;83.18;98898.59;5014018;28;20105;-64
2021/05/12 02:10:14;;;;;;;10.15;6.20;;;;;;;9.93;83.24;98893.69;5012478;28;20432;-63
2021/05/12 02:12:39;;;;;;;8.60;5.97;;;;;;;9.91;83.16;98902.00;5014030;28;20026;-64
2021/05/12 02:15:06;;;;;;;11.20;7.10;;;;;;;9.84;83.91;98900.56;5013763;28;20032;-64
2021/05/12 02:17:31;;;;;;;12.02;6.50;;;;;;;9.78;84.05;98896.16;5014028;28;20033;-64
2021/05/12 02:19:56;;;;;;;10.48;6.63;;;;;;;9.75;84.63;98902.00;5013998;28;20067;-65
2021/05/12 02:22:22;;;;;;;10.95;6.10;;;;;;;9.69;85.12;98903.81;5013455;28;20042;-64
2021/05/12 02:24:47;;;;;;;9.93;6.00;;;;;;;9.66;85.56;98905.09;5013814;28;20073;-64
2021/05/12 02:27:13;;;;;;;10.50;6.63;;;;;;;9.57;86.10;98905.75;5013384;28;20037;-64
2021/05/12 02:29:38;;;;;;;12.00;6.15;;;;;;;9.63;85.55;98910.91;5013640;28;20034;-64
2021/05/12 02:32:04;;;;;;;11.07;5.63;;;;;;;9.78;84.38;98905.00;5013414;28;20050;-64
2021/05/12 02:34:29;;;;;;;13.20;6.85;;;;;;;9.70;85.36;98916.91;5013753;28;20453;-64
2021/05/12 02:36:54;;;;;;;12.50;7.22;;;;;;;9.70;85.70;98921.47;5013430;28;20038;-64
2021/05/12 02:39:20;;;;;;;11.60;6.30;;;;;;;9.84;84.66;98924.63;5013563;28;20464;-64
2021/05/12 02:41:45;;;;;;;11.27;6.63;;;;;;;9.90;83.61;98915.63;5013246;28;20030;-66
2021/05/12 02:44:11;;;;;;;11.40;6.65;;;;;;;9.76;85.10;98919.69;5013774;28;20044;-64
2021/05/12 02:46:36;;;;;;;8.95;6.15;;;;;;;9.74;85.22;98906.56;5012972;28;20476;-64
2021/05/12 02:49:02;;;;;;;12.60;6.15;;;;;;;9.71;85.33;98913.22;5013370;28;20095;-65
2021/05/12 02:51:27;;;;;;;10.63;5.82;;;;;;;9.68;85.60;98919.06;5013018;28;20049;-64
2021/05/12 02:53:53;;;;;;;11.80;6.15;;;;;;;9.66;85.93;98910.47;5013367;28;20014;-64
2021/05/12 02:56:18;;;;;;;7.82;5.75;;;;;;;9.80;85.31;98912.78;5012853;28;20034;-65
2021/05/12 02:58:44;;;;;;;9.15;5.82;;;;;;;9.81;84.55;98917.91;5013545;28;20032;-64
2021/05/12 03:01:09;;;;;;;11.25;6.03;;;;;;;9.86;83.54;98915.31;5013054;28;20029;-66
2021/05/12 03:03:36;;;;;;;10.48;6.05;;;;;;;9.95;83.43;98913.00;5013356;28;20060;-65
2021/05/12 03:06:02;;;;;;;13.52;5.95;;;;;;;10.01;82.92;98920.06;5012792;28;20049;-63
2021/05/12 03:08:27;;;;;;;11.63;5.97;;;;;;;10.00;82.92;98921.13;5012801;28;20400;-66
2021/05/12 03:10:53;;;;;;;9.50;5.40;;;;;;;9.95;83.33;98923.72;4994979;28;20053;-65
2021/05/12 03:13:18;;;;;;;11.30;6.00;;;;;;;9.88;83.97;98923.06;5012736;28;20029;-65
2021/05/12 03:15:44;;;;;;;11.50;5.65;;;;;;;9.86;84.42;98925.19;5011639;28;20374;-66
2021/05/12 03:18:09;;;;;;;10.27;5.35;;;;;;;9.68;85.47;98919.06;5011971;28;20025;-65
2021/05/12 03:20:35;;;;;;;10.48;5.38;;;;;;;9.76;85.33;98925.03;5012577;28;20037;-65
2021/05/12 03:23:00;;;;;;;16.42;6.15;;;;;;;9.78;84.64;98917.56;5012930;28;20450;-65
2021/05/12 03:25:26;;;;;;;9.55;5.53;;;;;;;9.76;84.91;98915.16;5012529;28;20049;-65
2021/05/12 03:27:51;;;;;;;10.52;5.20;;;;;;;9.78;84.74;98909.53;5012995;28;20030;-65
2021/05/12 03:30:19;;;;;;;12.65;5.10;;;;;;;9.71;85.33;98915.88;5012703;28;20512;-65
2021/05/12 03:32:45;;;;;;;10.48;5.05;;;;;;;9.74;85.70;98921.81;5012778;28;20437;-65
2021/05/12 03:35:11;;;;;;;11.18;5.30;;;;;;;9.60;86.13;98924.00;5012520;28;20072;-66
2021/05/12 03:37:37;;;;;;;8.75;4.80;;;;;;;9.57;86.54;98922.59;5012834;28;20050;-63
2021/05/12 03:40:04;;;;;;;7.80;4.35;;;;;;;9.54;87.00;98915.06;5012708;28;20022;-66
2021/05/12 03:42:29;;;;;;;10.23;4.80;;;;;;;9.49;87.13;98915.00;5011561;28;20033;-65
2021/05/12 03:44:56;;;;;;;8.30;4.78;;;;;;;9.51;86.90;98915.56;5012773;28;20022;-66
2021/05/12 03:47:22;;;;;;;9.20;5.07;;;;;;;9.54;86.21;98915.06;5012282;28;20092;-65
2021/05/12 03:49:47;;;;;;;9.27;5.07;;;;;;;9.62;85.21;98920.00;4995220;28;20468;-65
2021/05/12 03:52:12;;;;;;;7.70;4.88;;;;;;;9.61;86.03;98918.41;5012157;28;20041;-63
2021/05/12 03:54:38;;;;;;;7.50;5.22;;;;;;;9.59;86.18;98922.38;5011502;28;20026;-63
2021/05/12 03:57:03;;;;;;;9.45;5.78;;;;;;;9.54;86.26;98923.09;5012278;28;20038;-66
2021/05/12 03:59:29;;;;;;;8.75;5.53;;;;;;;9.47;86.95;98927.81;5027953;28;20032;-65
2021/05/12 04:01:54;;;;;;;8.75;5.32;;;;;;;9.40;87.48;98927.13;5012215;28;20034;-64
2021/05/12 04:04:20;;;;;;;9.90;5.07;;;;;;;9.47;87.06;98927.81;5012777;28;20072;-66
2021/05/12 04:06:48;;;;;;;9.57;5.43;;;;;;;9.39;87.47;98934.38;4994579;28;20089;-64
2021/05/12 04:09:13;;;;;;;10.98;4.30;;;;;;;9.31;87.95;98928.59;5012283;28;20558;-64
2021/05/12 04:11:40;;;;;;;10.40;5.03;;;;;;;9.31;87.92;98932.09;4994668;28;20034;-65
2021/05/12 04:14:05;;;;;;;11.52;4.65;;;;;;;9.30;88.25;98935.78;5012685;28;20022;-65
2021/05/12 04:16:31;;;;;;;6.63;4.75;;;;;;;9.36;87.72;98928.66;5012010;28;20127;-65
2021/05/12 04:18:56;;;;;;;6.50;4.03;;;;;;;9.33;88.15;98929.16;5012664;28;20385;-65
2021/05/12 04:21:22;;;;;;;7.97;4.82;;;;;;;9.31;87.99;98929.41;5027186;28;20054;-65
2021/05/12 04:23:48;;;;;;;8.18;4.35;;;;;;;9.34;87.65;98930.78;5015181;28;20451;-65
2021/05/12 04:26:13;;;;;;;8.63;4.47;;;;;;;9.33;88.13;98926.47;5015874;28;20481;-65
2021/05/12 04:28:39;;;;;;;12.18;4.60;;;;;;;9.34;87.96;98928.13;5016021;28;20491;-66
2021/05/12 04:31:04;;;;;;;10.57;4.85;;;;;;;9.37;87.70;98927.63;5015954;28;20049;-68
2021/05/12 04:33:30;;;;;;;8.75;5.03;;;;;;;9.36;87.75;98932.19;5014928;28;20468;-65
2021/05/12 04:35:55;;;;;;;11.43;5.50;;;;;;;9.47;87.33;98935.81;4997956;28;20041;-65
2021/05/12 04:38:20;;;;;;;7.75;4.90;;;;;;;9.54;86.63;98933.81;5016241;28;20087;-65
2021/05/12 04:40:46;;;;;;;9.95;5.03;;;;;;;9.61;86.11;98931.78;5014165;28;20096;-65
2021/05/12 04:43:12;;;;;;;7.13;5.10;;;;;;;9.71;85.19;98928.47;4998293;28;20058;-65
2021/05/12 04:45:37;;;;;;;10.95;5.40;;;;;;;9.83;84.51;98928.34;5015401;28;20400;-65
2021/05/12 04:48:03;;;;;;;9.57;5.28;;;;;;;9.96;83.64;98925.34;5015748;28;20543;-65
2021/05/12 04:50:30;;;;;;;12.50;5.35;;;;;;;10.02;83.28;98927.03;5015191;28;20034;-65
2021/05/12 04:52:55;;;;;;;9.98;5.45;;;;;;;10.21;82.14;98932.09;5015517;28;20033;-65
2021/05/12 04:55:21;;;;;;;9.32;5.20;;;;;;;10.22;81.94;98933.75;5015385;28;20046;-65
2021/05/12 04:57:46;;;;;;;12.40;5.13;;;;;;;10.16;82.54;98935.53;5015585;28;20049;-65
2021/05/12 05:00:13;;;;;;;8.40;4.90;;;;;;;10.11;82.75;98938.97;5014998;28;20034;-65
2021/05/12 05:02:41;;;;;;;7.03;4.50;;;;;;;10.02;83.95;98935.06;5015088;28;20083;-65
2021/05/12 05:05:08;;;;;;;7.32;4.10;;;;;;;9.79;85.14;98936.06;5014813;28;20026;-65
2021/05/12 05:07:34;;;;;;;8.70;4.70;;;;;;;9.81;85.12;98939.31;5015186;28;20372;-65
2021/05/12 05:10:01;;;;;;;8.75;5.20;;;;;;;9.91;84.23;98942.16;4997963;28;20030;-65
2021/05/12 05:12:27;;;;;;;8.90;4.93;;;;;;;10.22;83.04;98949.81;5015004;28;20037;-65
2021/05/12 05:14:52;;;;;;;9.60;5.55;;;;;;;10.39;82.23;98950.63;5014106;28;20025;-64
2021/05/12 05:17:18;;;;;;;9.52;5.05;;;;;;;10.73;81.58;98947.81;5014721;28;20392;-65
2021/05/12 05:19:43;;;;;;;12.10;5.15;;;;;;;10.67;81.62;98956.84;4997548;28;20473;-65
2021/05/12 05:22:11;;;;;;;14.00;4.38;;;;;;;10.44;83.00;98952.56;5013464;28;20042;-65
2021/05/12 05:24:38;;;;;;;9.73;5.50;;;;;;;10.17;83.76;98950.53;5015286;28;20053;-65
2021/05/12 05:27:04;;;;;;;8.88;5.00;;;;;;;10.12;84.07;98953.16;4997040;28;20033;-65
2021/05/12 05:29:29;;;;;;;7.85;4.50;;;;;;;10.15;83.79;98950.78;5015028;28;20037;-65
2021/05/12 05:31:55;;;;;;;6.82;4.65;;;;;;;10.33;82.79;98951.59;5014553;28;20033;-65
2021/05/12 05:34:20;;;;;;;8.02;4.63;;;;;;;11.26;79.33;98959.66;5014156;28;20048;-65
2021/05/12 05:36:46;;;;;;;7.43;4.10;;;;;;;10.73;81.64;98955.84;5014554;28;20412;-65
2021/05/12 05:39:11;;;;;;;7.50;4.45;;;;;;;10.61;82.32;98963.19;5013683;28;20392;-65
2021/05/12 05:41:36;;;;;;;9.73;5.20;;;;;;;10.44;83.28;98964.06;5014582;28;20500;-65
2021/05/12 05:44:03;;;;;;;8.60;5.30;;;;;;;10.28;84.09;98971.09;5014840;28;20030;-65
2021/05/12 05:46:28;;;;;;;11.18;5.22;;;;;;;10.24;84.41;98977.16;5013038;28;20045;-65
2021/05/12 05:48:53;;;;;;;10.52;5.40;;;;;;;10.26;84.39;98977.72;5014540;28;20038;-65
2021/05/12 05:51:21;;;;;;;10.05;5.43;;;;;;;10.29;84.51;98971.91;4996608;28;20045;-65
2021/05/12 05:53:46;;;;;;;6.60;5.00;;;;;;;10.50;83.46;98962.25;5014796;28;20034;-65
2021/05/12 05:56:12;;;;;;;11.80;5.88;;;;;;;10.43;83.66;98969.66;5014190;28;20037;-65
2021/05/12 05:58:38;;;;;;;11.25;6.00;;;;;;;10.36;84.49;98977.91;5029578;28;20022;-65
2021/05/12 06:01:03;;;;;;;9.77;4.90;;;;;;;10.27;84.95;98977.47;5014041;28;20038;-66
2021/05/12 06:03:28;;;;;;;7.78;5.50;;;;;;;10.24;84.94;98979.84;5013360;28;20044;-65
2021/05/12 06:05:54;;;;;;;9.35;5.43;;;;;;;10.22;85.22;98987.31;5014168;28;20042;-63
2021/05/12 06:08:19;;;;;;;8.63;6.05;;;;;;;10.33;84.63;98978.38;5014091;28;20559;-63
2021/05/12 06:10:45;;;;;;;13.05;5.63;;;;;;;10.32;84.18;98971.41;4996144;28;20492;-63
2021/05/12 06:13:11;;;;;;;11.10;6.05;;;;;;;10.54;83.92;98980.28;5014182;28;20072;-63
2021/05/12 06:15:39;;;;;;;9.82;6.65;;;;;;;10.73;83.10;98977.28;5013682;28;20484;-63
2021/05/12 06:18:05;;;;;;;9.88;5.90;;;;;;;11.00;82.22;98978.16;4996268;28;20037;-63
2021/05/12 06:20:31;;;;;;;12.48;5.60;;;;;;;11.23;80.50;98970.88;5013814;28;20447;-63
2021/05/12 06:23:00;;;;;;;7.65;5.22;;;;;;;11.30;79.82;98982.22;5014055;28;20385;-63
2021/05/12 06:25:25;;;;;;;10.60;5.63;;;;;;;11.63;78.71;98980.38;5013751;28;20128;-65
2021/05/12 06:27:51;;;;;;;8.85;4.45;;;;;;;11.89;77.69;98977.97;5013911;28;20108;-63
2021/05/12 06:30:16;;;;;;;10.70;4.70;;;;;;;12.18;75.61;98976.56;5013383;28;20037;-63
2021/05/12 06:32:43;;;;;;;10.80;4.55;;;;;;;12.42;73.94;98976.16;5013820;28;20453;-65
2021/05/12 06:35:09;;;;;;;7.30;4.45;;;;;;;12.60;72.51;98973.00;5028353;28;20380;-65
2021/05/12 06:37:35;;;;;;;10.82;4.68;;;;;;;12.64;72.51;98982.16;5013806;28;20091;-65
2021/05/12 06:40:00;;;;;;;9.50;4.13;;;;;;;12.48;72.73;98981.28;5013601;28;20025;-64
2021/05/12 06:42:26;;;;;;;6.90;4.22;;;;;;;12.61;72.58;98981.91;5013357;28;20078;-64
2021/05/12 06:44:51;;;;;;;8.63;4.70;;;;;;;12.69;72.75;98990.25;5013349;28;20153;-65
2021/05/12 06:47:16;;;;;;;8.73;4.43;;;;;;;12.57;73.76;98994.22;5013020;28;20034;-65
2021/05/12 06:49:42;;;;;;;9.38;4.63;;;;;;;12.59;73.73;98995.59;5013428;28;20033;-64
2021/05/12 06:52:07;;;;;;;9.25;4.20;;;;;;;12.60;73.67;98991.81;5012977;28;20058;-64
2021/05/12 06:54:33;;;;;;;10.88;4.20;;;;;;;12.51;74.02;98993.41;5012990;28;20408;-64
2021/05/12 06:56:58;;;;;;;7.97;4.30;;;;;;;12.55;73.75;98991.78;5013108;28;20034;-65
2021/05/12 06:59:24;;;;;;;7.10;3.90;;;;;;;12.51;73.93;98998.78;5013437;28;20037;-63
2021/05/12 07:01:49;;;;;;;7.32;4.18;;;;;;;12.53;73.62;98991.28;5013004;28;20432;-64
2021/05/12 07:04:15;;;;;;;9.23;5.05;;;;;;;12.63;73.26;98987.81;5013518;28;20461;-64
2021/05/12 07:06:40;;;;;;;7.35;3.90;;;;;;;12.78;72.90;98995.13;5012806;28;20034;-65
2021/05/12 07:09:06;;;;;;;7.22;4.30;;;;;;;12.69;72.52;98992.94;5013081;28;20121;-63
2021/05/12 07:11:31;;;;;;;11.02;4.10;;;;;;;12.82;71.72;98998.94;5012740;28;20401;-65
2021/05/12 07:13:57;;;;;;;8.52;4.15;;;;;;;12.85;72.34;99001.09;5013349;28;20033;-64
2021/05/12 07:16:22;;;;;;;8.52;4.07;;;;;;;12.88;71.75;98996.00;5012718;28;20038;-65
2021/05/12 07:18:47;;;;;;;6.22;3.92;;;;;;;12.90;70.23;98995.72;5013385;28;20030;-65
2021/05/12 07:21:13;;;;;;;9.93;4.07;;;;;;;13.07;69.97;98996.31;5012759;28;20041;-63
2021/05/12 07:23:42;;;;;;;11.38;4.10;;;;;;;13.18;70.20;99005.25;5013252;28;20022;-63
2021/05/12 07:26:07;;;;;;;8.05;3.70;;;;;;;13.30;68.93;98991.56;5012777;28;20042;-63
2021/05/12 07:28:33;;;;;;;8.70;3.90;;;;;;;13.67;68.41;98995.94;4995472;28;20029;-63
2021/05/12 07:30:58;;;;;;;8.73;3.90;;;;;;;13.79;66.91;98996.50;5012279;28;20381;-64
2021/05/12 07:33:24;;;;;;;9.52;3.58;;;;;;;14.05;67.02;98993.78;5012990;28;20084;-63
2021/05/12 07:35:49;;;;;;;7.75;3.83;;;;;;;14.32;66.13;98996.97;5012634;28;20030;-63
2021/05/12 07:38:15;;;;;;;6.10;3.35;;;;;;;14.41;64.89;98995.34;5013057;28;20025;-64
2021/05/12 07:40:40;;;;;;;9.75;3.65;;;;;;;14.02;66.09;98987.03;5012635;28;20056;-63
2021/05/12 07:43:09;;;;;;;8.30;4.25;;;;;;;14.08;65.61;98995.94;5012948;28;20026;-63
2021/05/12 07:45:36;;;;;;;9.63;4.20;;;;;;;14.15;65.21;98989.22;5011297;28;20038;-64
2021/05/12 07:48:05;;;;;;;7.05;3.50;;;;;;;14.31;64.71;98989.97;5012920;28;20037;-65
2021/05/12 07:50:31;;;;;;;11.15;4.00;;;;;;;14.38;62.88;98989.72;5012515;28;20046;-63
2021/05/12 07:53:04;;;;;;;19.67;5.03;;;;;;;14.87;62.87;98987.13;5012791;28;20037;-63
2021/05/12 07:55:30;;;;;;;13.07;3.80;;;;;;;15.05;62.06;98992.97;5012561;28;20126;-63
2021/05/12 07:57:55;;;;;;;7.03;3.53;;;;;;;13.93;64.22;98989.50;5014020;28;20113;-65
2021/05/12 08:00:21;;;;;;;7.60;3.72;;;;;;;14.77;63.35;98989.88;5016552;28;20415;-65
2021/05/12 08:02:47;;;;;;;9.93;3.63;;;;;;;15.04;61.48;98989.50;5016636;28;20018;-65
2021/05/12 08:05:13;;;;;;;6.47;3.40;;;;;;;14.88;61.88;98988.75;5016147;28;20174;-63
2021/05/12 08:07:38;;;;;;;8.73;3.95;;;;;;;14.80;61.82;98992.03;5016303;28;20100;-63
2021/05/12 08:10:04;;;;;;;9.85;3.63;;;;;;;14.41;62.50;98989.16;5016207;28;20124;-63
2021/05/12 08:12:30;;;;;;;8.50;3.75;;;;;;;14.81;62.49;98985.53;5016528;28;20097;-63
2021/05/12 08:14:55;;;;;;;10.13;3.70;;;;;;;14.97;62.19;98986.28;4998896;28;20476;-63
2021/05/12 08:17:21;;;;;;;28.27;6.22;;;;;;;15.27;60.64;98985.31;5016007;28;20042;-63
2021/05/12 08:19:46;;;;;;;7.55;3.70;;;;;;;15.15;61.44;98981.34;5016355;28;20022;-63
2021/05/12 08:22:12;;;;;;;4.97;3.10;;;;;;;15.34;60.60;98979.59;5015895;28;20038;-63
2021/05/12 08:24:37;;;;;;;8.50;3.30;;;;;;;15.62;60.23;98980.75;5016255;28;20092;-64
2021/05/12 08:27:04;;;;;;;7.13;3.20;;;;;;;15.35;59.62;98977.72;5015818;28;20049;-63
2021/05/12 08:29:33;;;;;;;7.57;3.40;;;;;;;15.41;60.32;98985.50;5016056;28;20499;-63
2021/05/12 08:31:58;;;;;;;9.98;4.40;;;;;;;14.91;63.28;98989.28;5015596;28;20374;-67
2021/05/12 08:34:24;;;;;;;10.57;4.80;;;;;;;14.36;65.39;98986.47;5015951;28;20028;-64
2021/05/12 08:36:49;;;;;;;9.57;4.90;;;;;;;13.83;68.67;98981.41;5014387;28;20049;-63
2021/05/12 08:39:15;;;;;;;10.13;4.45;;;;;;;15.10;64.89;98982.16;4998370;28;20026;-63
2021/05/12 08:41:41;;;;;;;11.05;4.40;;;;;;;13.59;67.75;98991.91;5014388;28;20038;-64
2021/05/12 08:44:07;;;;;;;8.60;4.45;;;;;;;13.64;68.11;98989.22;5015849;28;20457;-63
2021/05/12 08:46:33;;;;;;;9.80;4.68;;;;;;;14.10;65.57;98988.38;5014117;28;20042;-63
2021/05/12 08:48:59;;;;;;;12.07;4.57;;;;;;;14.01;66.68;98990.84;4998258;28;20069;-63
2021/05/12 08:51:26;;;;;;;6.45;4.13;;;;;;;14.92;62.50;98988.19;5015373;28;20620;-63
2021/05/12 08:53:52;;;;;;;9.60;4.13;;;;;;;15.74;60.37;98977.75;4981735;28;20033;-63
2021/05/12 08:56:17;;;;;;;8.68;4.70;;;;;;;15.82;60.17;98979.03;4981477;28;20096;-63
2021/05/12 08:58:43;;;;;;;9.48;4.80;;;;;;;15.66;62.13;98984.53;5015587;28;20496;-64
2021/05/12 09:01:08;;;;;;;8.02;4.93;;;;;;;15.14;63.49;98980.53;5015110;28;20037;-63
2021/05/12 09:03:34;;;;;;;10.07;5.28;;;;;;;14.91;65.30;98973.91;5015685;28;20037;-63
2021/05/12 09:05:59;;;;;;;8.13;5.35;;;;;;;14.54;62.71;98971.63;4997347;28;20539;-63
2021/05/12 09:08:25;;;;;;;11.63;5.65;;;;;;;14.45;66.10;98969.47;4997553;28;20051;-63
2021/05/12 09:10:51;;;;;;;7.82;5.05;;;;;;;14.45;65.60;98974.84;4996485;28;20038;-63
2021/05/12 09:13:30;;;;;;;10.00;5.25;;;;;;;14.82;66.00;98968.25;5013533;28;20030;-63
2021/05/12 09:16:14;;;;;;;10.10;5.10;;;;;;;13.82;68.24;98966.31;5015061;28;20523;-63
2021/05/12 09:18:40;;;;;;;10.73;5.22;;;;;;;13.36;69.43;98971.69;4981676;28;20037;-63
2021/05/12 09:21:05;;;;;;;8.02;4.82;;;;;;;13.20;70.95;98965.41;5014870;28;20392;-63
2021/05/12 09:23:37;;;;;;;10.88;5.95;;;;;;;12.89;72.89;98970.72;5015207;28;20034;-63
2021/05/12 09:26:02;;;;;;;13.25;6.30;;;;;;;13.31;70.63;98966.28;4997315;28;20045;-63
2021/05/12 09:28:29;;;;;;;11.52;6.13;;;;;;;13.30;71.27;98970.03;4997694;28;20026;-63
2021/05/12 09:31:05;;;;;;;10.73;5.75;;;;;;;13.13;71.97;98960.31;5014800;28;20038;-63
2021/05/12 09:33:32;;;;;;;9.00;5.40;;;;;;;13.48;70.57;98957.94;5015011;28;20050;-63
2021/05/12 09:35:58;;;;;;;13.95;5.78;;;;;;;13.77;69.07;98960.94;5014637;28;20030;-63
2021/05/12 09:38:25;;;;;;;14.70;5.43;;;;;;;14.17;67.03;98961.97;5014877;28;20018;-63
2021/05/12 09:41:10;;;;;;;11.75;4.43;;;;;;;15.31;64.68;98958.56;5014358;28;20038;-64
2021/05/12 09:43:37;;;;;;;10.23;5.65;;;;;;;14.59;65.58;98958.91;5014901;28;20022;-65
2021/05/12 09:46:19;;;;;;;9.30;5.45;;;;;;;14.51;64.80;98966.75;5014515;28;20037;-63
2021/05/12 09:48:59;;;;;;;9.05;5.25;;;;;;;15.23;62.17;98962.69;4997375;28;20112;-63
2021/05/12 09:51:29;;;;;;;11.98;5.40;;;;;;;15.39;61.66;98959.88;5014105;28;20592;-64
2021/05/12 09:54:04;;;;;;;9.35;5.63;;;;;;;16.04;58.85;98959.66;4997020;28;20034;-64
2021/05/12 09:56:39;;;;;;;10.38;5.35;;;;;;;14.98;62.75;98954.72;5014185;28;20068;-63
2021/05/12 09:59:08;;;;;;;12.15;5.40;;;;;;;15.31;62.32;98958.56;5014447;28;20580;-63
2021/05/12 10:01:41;;;;;;;8.70;5.55;;;;;;;15.95;59.93;98959.47;5014156;28;20041;-63
2021/05/12 10:04:28;;;;;;;8.95;4.90;;;;;;;15.31;60.13;98959.38;5014542;28;20056;-63
2021/05/12 10:06:54;;;;;;;7.47;4.68;;;;;;;15.22;60.91;98950.25;5013870;28;20422;-63
2021/05/12 10:09:21;;;;;;;8.85;4.82;;;;;;;16.06;56.42;98958.28;5014068;28;20061;-64
2021/05/12 10:12:00;;;;;;;9.52;5.05;;;;;;;15.59;59.45;98948.91;5028976;28;20088;-64
2021/05/12 10:14:25;;;;;;;7.20;4.53;;;;;;;17.67;51.86;98956.78;4996709;28;20079;-63
2021/05/12 10:16:51;;;;;;;7.07;3.58;;;;;;;17.94;50.62;98950.69;5013692;28;20042;-63
2021/05/12 10:19:16;;;;;;;9.38;3.78;;;;;;;16.48;55.59;98948.66;5013093;28;20040;-63
2021/05/12 10:21:42;;;;;;;8.32;3.28;;;;;;;16.67;50.96;98950.59;5013366;28;20049;-63
2021/05/12 10:24:07;;;;;;;9.45;3.78;;;;;;;15.23;55.05;98943.78;4996598;28;20022;-63
2021/05/12 10:26:33;;;;;;;7.50;3.35;;;;;;;16.07;53.15;98943.66;5028949;28;20034;-62
2021/05/12 10:28:58;;;;;;;10.80;3.78;;;;;;;16.38;53.30;98949.56;5012728;28;20461;-65
2021/05/12 10:31:26;;;;;;;10.13;4.18;;;;;;;16.74;52.66;98940.22;5012412;28;20034;-65
2021/05/12 10:33:52;;;;;;;7.70;3.83;;;;;;;16.94;51.98;98945.41;5028839;28;20038;-64
2021/05/12 10:36:18;;;;;;;8.32;3.72;;;;;;;14.33;57.87;98935.81;5013372;28;20096;-63
2021/05/12 10:38:47;;;;;;;7.72;3.67;;;;;;;15.29;55.29;98931.84;5012588;28;20030;-63
2021/05/12 10:41:34;;;;;;;9.75;4.10;;;;;;;15.85;56.31;98937.91;4995846;28;20034;-63
2021/05/12 10:44:04;;;;;;;6.80;3.30;;;;;;;15.91;54.79;98934.09;5013825;28;20030;-63
2021/05/12 10:46:30;;;;;;;10.45;4.15;;;;;;;16.08;55.44;98934.47;5027995;28;20057;-63
2021/05/12 10:48:56;;;;;;;10.70;4.00;;;;;;;15.67;54.14;98924.00;5013590;28;20481;-63
2021/05/12 10:51:27;;;;;;;12.50;3.78;;;;;;;15.53;55.17;98923.84;5011897;28;20029;-63
2021/05/12 10:53:56;;;;;;;6.55;3.33;;;;;;;15.23;54.35;98930.28;5013765;28;20161;-63
2021/05/12 10:56:23;;;;;;;12.88;3.80;;;;;;;15.58;52.48;98925.72;5013231;28;20121;-63
2021/05/12 10:58:57;;;;;;;6.50;3.13;;;;;;;16.30;50.94;98919.63;4995922;28;20476;-63
2021/05/12 11:01:23;;;;;;;7.72;3.33;;;;;;;17.03;47.91;98930.13;5013098;28;20042;-63
2021/05/12 11:03:57;;;;;;;6.68;3.20;;;;;;;16.91;50.56;98926.25;5012529;28;20113;-63
2021/05/12 11:06:24;;;;;;;9.75;3.17;;;;;;;16.94;50.10;98923.75;5013077;28;20049;-63
2021/05/12 11:09:01;;;;;;;6.35;3.13;;;;;;;16.31;48.99;98918.56;5013174;28;20053;-62
2021/05/12 11:11:27;;;;;;;8.50;3.25;;;;;;;16.56;49.27;98920.94;5012894;28;20041;-63
2021/05/12 11:14:31;;;;;;;7.47;3.78;;;;;;;15.86;52.31;98921.44;5012070;28;20021;-63
2021/05/12 11:17:18;;;;;;;9.18;4.05;;;;;;;15.66;54.09;98927.00;5011954;28;20117;-63
2021/05/12 11:19:55;;;;;;;7.43;3.47;;;;;;;16.23;53.95;98924.59;5013326;28;20053;-63
2021/05/12 11:22:24;;;;;;;7.30;3.60;;;;;;;16.27;54.53;98922.91;5013032;28;20041;-63
2021/05/12 11:24:52;;;;;;;7.15;3.10;;;;;;;16.53;54.52;98928.84;5013348;28;20026;-63
2021/05/12 11:32:14;;;;;;;8.48;3.80;;;;;;;15.44;66.39;98930.13;5011877;28;20042;-64
2021/05/12 11:34:40;;;;;;;13.05;4.15;;;;;;;15.30;67.89;98927.25;5013090;28;20026;-64
2021/05/12 11:37:07;;;;;;;10.98;3.50;;;;;;;14.65;69.56;98927.34;5012615;28;20040;-64